Terminal Aerodrome Forecast
Issued by NWS Upton, NY

Current Version | Previous Version | Text Only | Print | Product List | Glossary On
Versions: 1 2 3 4 5 6 7 8 9 10 11 12 13 14 15 16 17 18 19 20 21 22 23 24 25 26 27 28 29
000
FTUS41 KOKX 201200 AAA
TAFLGA
TAF AMD
KLGA 201217Z 2012/2112 14007KT P6SM SCT035 BKN070
      TEMPO 2012/2015 BKN070
     FM201500 16011KT P6SM SCT035 BKN070
     FM201800 17014G20KT P6SM SCT040
     FM202300 17010KT P6SM BKN040
     FM210300 13010KT P6SM BKN025
     FM210800 12006KT 6SM BR BKN015=

USA.gov is the U.S. government's official web portal to all federal, state and local government web resources and services.